sensor_id;sensor_type;location;lat;lon;timestamp;P1;durP1;ratioP1;P2;durP2;ratioP2
6288;SDS011;3177;49.880;8.836;2023-09-12T00:00:45;6.97;;;5.13;;
6288;SDS011;3177;49.880;8.836;2023-09-12T00:03:12;15.20;;;6.15;;
6288;SDS011;3177;49.880;8.836;2023-09-12T00:05:38;9.00;;;6.15;;
6288;SDS011;3177;49.880;8.836;2023-09-12T00:08:06;10.52;;;5.68;;
6288;SDS011;3177;49.880;8.836;2023-09-12T00:10:33;9.77;;;5.90;;
6288;SDS011;3177;49.880;8.836;2023-09-12T00:13:01;7.68;;;5.82;;
6288;SDS011;3177;49.880;8.836;2023-09-12T00:15:29;7.22;;;5.50;;
6288;SDS011;3177;49.880;8.836;2023-09-12T00:17:56;9.55;;;5.65;;
6288;SDS011;3177;49.880;8.836;2023-09-12T00:20:23;8.23;;;6.00;;
6288;SDS011;3177;49.880;8.836;2023-09-12T00:22:50;8.50;;;5.82;;
6288;SDS011;3177;49.880;8.836;2023-09-12T00:25:18;7.53;;;5.47;;
6288;SDS011;3177;49.880;8.836;2023-09-12T00:27:45;8.82;;;5.78;;
6288;SDS011;3177;49.880;8.836;2023-09-12T00:30:14;8.50;;;5.60;;
6288;SDS011;3177;49.880;8.836;2023-09-12T00:32:42;9.80;;;5.50;;
6288;SDS011;3177;49.880;8.836;2023-09-12T00:35:09;8.85;;;5.68;;
6288;SDS011;3177;49.880;8.836;2023-09-12T00:37:36;9.70;;;6.18;;
6288;SDS011;3177;49.880;8.836;2023-09-12T00:40:03;6.78;;;5.65;;
6288;SDS011;3177;49.880;8.836;2023-09-12T00:42:30;9.77;;;6.03;;
6288;SDS011;3177;49.880;8.836;2023-09-12T00:44:57;9.27;;;6.63;;
6288;SDS011;3177;49.880;8.836;2023-09-12T00:47:26;10.30;;;5.80;;
6288;SDS011;3177;49.880;8.836;2023-09-12T00:49:56;9.95;;;5.97;;
6288;SDS011;3177;49.880;8.836;2023-09-12T00:52:24;8.88;;;6.03;;
6288;SDS011;3177;49.880;8.836;2023-09-12T00:54:52;11.20;;;6.47;;
6288;SDS011;3177;49.880;8.836;2023-09-12T00:57:19;10.48;;;6.70;;
6288;SDS011;3177;49.880;8.836;2023-09-12T00:59:47;12.65;;;6.30;;
6288;SDS011;3177;49.880;8.836;2023-09-12T01:02:14;12.38;;;6.80;;
6288;SDS011;3177;49.880;8.836;2023-09-12T01:04:42;8.88;;;5.93;;
6288;SDS011;3177;49.880;8.836;2023-09-12T01:07:09;7.47;;;5.68;;
6288;SDS011;3177;49.880;8.836;2023-09-12T01:09:37;7.45;;;5.57;;
6288;SDS011;3177;49.880;8.836;2023-09-12T01:12:04;9.25;;;6.32;;
6288;SDS011;3177;49.880;8.836;2023-09-12T01:14:31;10.95;;;6.18;;
6288;SDS011;3177;49.880;8.836;2023-09-12T01:16:59;9.18;;;6.28;;
6288;SDS011;3177;49.880;8.836;2023-09-12T01:19:27;9.00;;;6.43;;
6288;SDS011;3177;49.880;8.836;2023-09-12T01:24:52;9.90;;;6.57;;
6288;SDS011;3177;49.880;8.836;2023-09-12T01:27:27;11.15;;;6.55;;
6288;SDS011;3177;49.880;8.836;2023-09-12T01:29:56;9.52;;;6.53;;
6288;SDS011;3177;49.880;8.836;2023-09-12T01:32:23;10.35;;;6.45;;
6288;SDS011;3177;49.880;8.836;2023-09-12T01:34:50;7.97;;;6.50;;
6288;SDS011;3177;49.880;8.836;2023-09-12T01:37:17;8.83;;;6.33;;
6288;SDS011;3177;49.880;8.836;2023-09-12T01:39:44;8.70;;;6.27;;
6288;SDS011;3177;49.880;8.836;2023-09-12T01:42:13;9.93;;;6.90;;
6288;SDS011;3177;49.880;8.836;2023-09-12T01:44:44;9.30;;;6.75;;
6288;SDS011;3177;49.880;8.836;2023-09-12T01:47:11;7.25;;;6.00;;
6288;SDS011;3177;49.880;8.836;2023-09-12T01:49:39;13.05;;;6.88;;
6288;SDS011;3177;49.880;8.836;2023-09-12T01:52:07;14.02;;;6.63;;
6288;SDS011;3177;49.880;8.836;2023-09-12T01:54:34;6.95;;;5.80;;
6288;SDS011;3177;49.880;8.836;2023-09-12T01:57:01;8.32;;;5.93;;
6288;SDS011;3177;49.880;8.836;2023-09-12T01:59:28;7.60;;;5.83;;
6288;SDS011;3177;49.880;8.836;2023-09-12T02:01:57;9.13;;;5.25;;
6288;SDS011;3177;49.880;8.836;2023-09-12T02:04:25;6.25;;;5.43;;
6288;SDS011;3177;49.880;8.836;2023-09-12T02:06:52;9.63;;;5.68;;
6288;SDS011;3177;49.880;8.836;2023-09-12T02:09:19;5.78;;;5.15;;
6288;SDS011;3177;49.880;8.836;2023-09-12T02:11:46;7.03;;;5.18;;
6288;SDS011;3177;49.880;8.836;2023-09-12T02:14:13;8.73;;;5.20;;
6288;SDS011;3177;49.880;8.836;2023-09-12T02:16:40;11.15;;;7.13;;
6288;SDS011;3177;49.880;8.836;2023-09-12T02:19:08;11.20;;;5.37;;
6288;SDS011;3177;49.880;8.836;2023-09-12T02:21:35;7.63;;;5.82;;
6288;SDS011;3177;49.880;8.836;2023-09-12T02:24:03;8.67;;;5.77;;
6288;SDS011;3177;49.880;8.836;2023-09-12T02:26:30;9.27;;;5.53;;
6288;SDS011;3177;49.880;8.836;2023-09-12T02:29:01;8.50;;;5.33;;
6288;SDS011;3177;49.880;8.836;2023-09-12T02:31:28;7.77;;;6.03;;
6288;SDS011;3177;49.880;8.836;2023-09-12T02:33:55;8.53;;;5.43;;
6288;SDS011;3177;49.880;8.836;2023-09-12T02:36:23;7.90;;;5.77;;
6288;SDS011;3177;49.880;8.836;2023-09-12T02:38:50;7.67;;;5.77;;
6288;SDS011;3177;49.880;8.836;2023-09-12T02:41:17;9.43;;;5.97;;
6288;SDS011;3177;49.880;8.836;2023-09-12T02:43:44;8.97;;;5.77;;
6288;SDS011;3177;49.880;8.836;2023-09-12T02:46:11;6.97;;;5.70;;
6288;SDS011;3177;49.880;8.836;2023-09-12T02:48:38;8.17;;;5.40;;
6288;SDS011;3177;49.880;8.836;2023-09-12T02:51:05;7.90;;;5.90;;
6288;SDS011;3177;49.880;8.836;2023-09-12T02:53:34;7.70;;;5.30;;
6288;SDS011;3177;49.880;8.836;2023-09-12T02:56:01;7.67;;;5.40;;
6288;SDS011;3177;49.880;8.836;2023-09-12T02:58:28;9.13;;;4.90;;
6288;SDS011;3177;49.880;8.836;2023-09-12T03:00:55;5.50;;;4.90;;
6288;SDS011;3177;49.880;8.836;2023-09-12T03:03:22;7.80;;;5.37;;
6288;SDS011;3177;49.880;8.836;2023-09-12T03:05:56;7.13;;;5.97;;
6288;SDS011;3177;49.880;8.836;2023-09-12T03:08:23;8.10;;;5.10;;
6288;SDS011;3177;49.880;8.836;2023-09-12T03:10:54;6.53;;;5.13;;
6288;SDS011;3177;49.880;8.836;2023-09-12T03:13:22;8.83;;;6.17;;
6288;SDS011;3177;49.880;8.836;2023-09-12T03:15:49;8.10;;;5.40;;
6288;SDS011;3177;49.880;8.836;2023-09-12T03:18:16;8.03;;;6.27;;
6288;SDS011;3177;49.880;8.836;2023-09-12T03:20:43;10.27;;;6.20;;
6288;SDS011;3177;49.880;8.836;2023-09-12T03:23:10;7.93;;;6.70;;
6288;SDS011;3177;49.880;8.836;2023-09-12T03:25:37;8.90;;;6.50;;
6288;SDS011;3177;49.880;8.836;2023-09-12T03:28:06;12.30;;;6.57;;
6288;SDS011;3177;49.880;8.836;2023-09-12T03:30:34;13.90;;;6.50;;
6288;SDS011;3177;49.880;8.836;2023-09-12T03:33:01;6.77;;;6.00;;
6288;SDS011;3177;49.880;8.836;2023-09-12T03:35:28;6.50;;;5.80;;
6288;SDS011;3177;49.880;8.836;2023-09-12T03:37:56;9.43;;;5.50;;
6288;SDS011;3177;49.880;8.836;2023-09-12T03:40:23;7.27;;;5.33;;
6288;SDS011;3177;49.880;8.836;2023-09-12T03:42:50;8.43;;;5.83;;
6288;SDS011;3177;49.880;8.836;2023-09-12T03:45:18;8.47;;;5.70;;
6288;SDS011;3177;49.880;8.836;2023-09-12T03:47:45;9.50;;;5.07;;
6288;SDS011;3177;49.880;8.836;2023-09-12T03:50:12;7.27;;;5.17;;
6288;SDS011;3177;49.880;8.836;2023-09-12T03:52:40;5.17;;;4.67;;
6288;SDS011;3177;49.880;8.836;2023-09-12T03:55:07;6.10;;;5.27;;
6288;SDS011;3177;49.880;8.836;2023-09-12T03:57:35;7.67;;;5.33;;
6288;SDS011;3177;49.880;8.836;2023-09-12T04:00:02;7.73;;;5.20;;
6288;SDS011;3177;49.880;8.836;2023-09-12T04:02:32;6.53;;;5.67;;
6288;SDS011;3177;49.880;8.836;2023-09-12T04:04:59;7.70;;;5.17;;
6288;SDS011;3177;49.880;8.836;2023-09-12T04:07:26;6.00;;;5.40;;
6288;SDS011;3177;49.880;8.836;2023-09-12T04:09:53;9.30;;;6.70;;
6288;SDS011;3177;49.880;8.836;2023-09-12T04:12:20;9.20;;;5.90;;
6288;SDS011;3177;49.880;8.836;2023-09-12T04:14:48;7.23;;;6.00;;
6288;SDS011;3177;49.880;8.836;2023-09-12T04:17:16;9.63;;;6.37;;
6288;SDS011;3177;49.880;8.836;2023-09-12T04:19:44;6.93;;;6.17;;
6288;SDS011;3177;49.880;8.836;2023-09-12T04:22:11;10.47;;;5.60;;
6288;SDS011;3177;49.880;8.836;2023-09-12T04:24:38;12.30;;;6.40;;
6288;SDS011;3177;49.880;8.836;2023-09-12T04:27:06;9.40;;;6.60;;
6288;SDS011;3177;49.880;8.836;2023-09-12T04:29:33;12.13;;;6.40;;
6288;SDS011;3177;49.880;8.836;2023-09-12T04:32:01;7.90;;;6.87;;
6288;SDS011;3177;49.880;8.836;2023-09-12T04:34:28;10.73;;;7.33;;
6288;SDS011;3177;49.880;8.836;2023-09-12T04:36:57;8.40;;;6.63;;
6288;SDS011;3177;49.880;8.836;2023-09-12T04:39:24;11.27;;;7.00;;
6288;SDS011;3177;49.880;8.836;2023-09-12T04:41:51;12.97;;;6.77;;
6288;SDS011;3177;49.880;8.836;2023-09-12T04:44:18;8.30;;;7.20;;
6288;SDS011;3177;49.880;8.836;2023-09-12T04:46:45;9.47;;;7.00;;
6288;SDS011;3177;49.880;8.836;2023-09-12T04:49:13;8.67;;;6.63;;
6288;SDS011;3177;49.880;8.836;2023-09-12T04:51:40;10.20;;;7.17;;
6288;SDS011;3177;49.880;8.836;2023-09-12T04:54:09;10.93;;;7.07;;
6288;SDS011;3177;49.880;8.836;2023-09-12T04:56:36;10.20;;;7.33;;
6288;SDS011;3177;49.880;8.836;2023-09-12T04:59:04;11.90;;;8.20;;
6288;SDS011;3177;49.880;8.836;2023-09-12T05:01:31;10.83;;;8.90;;
6288;SDS011;3177;49.880;8.836;2023-09-12T05:03:58;13.47;;;7.80;;
6288;SDS011;3177;49.880;8.836;2023-09-12T05:06:26;13.20;;;7.97;;
6288;SDS011;3177;49.880;8.836;2023-09-12T05:08:53;14.20;;;8.07;;
6288;SDS011;3177;49.880;8.836;2023-09-12T05:11:22;15.33;;;8.23;;
6288;SDS011;3177;49.880;8.836;2023-09-12T05:13:49;9.05;;;7.25;;
6288;SDS011;3177;49.880;8.836;2023-09-12T05:16:16;11.00;;;8.10;;
6288;SDS011;3177;49.880;8.836;2023-09-12T05:18:43;10.03;;;7.53;;
6288;SDS011;3177;49.880;8.836;2023-09-12T05:21:10;10.97;;;8.40;;
6288;SDS011;3177;49.880;8.836;2023-09-12T05:23:37;14.17;;;7.87;;
6288;SDS011;3177;49.880;8.836;2023-09-12T05:26:04;8.80;;;7.03;;
6288;SDS011;3177;49.880;8.836;2023-09-12T05:28:33;10.53;;;7.70;;
6288;SDS011;3177;49.880;8.836;2023-09-12T05:31:00;11.17;;;8.50;;
6288;SDS011;3177;49.880;8.836;2023-09-12T05:33:28;12.37;;;7.43;;
6288;SDS011;3177;49.880;8.836;2023-09-12T05:35:55;14.80;;;7.33;;
6288;SDS011;3177;49.880;8.836;2023-09-12T05:38:22;8.90;;;7.33;;
6288;SDS011;3177;49.880;8.836;2023-09-12T05:40:49;8.57;;;7.67;;
6288;SDS011;3177;49.880;8.836;2023-09-12T05:43:16;12.57;;;8.23;;
6288;SDS011;3177;49.880;8.836;2023-09-12T05:45:45;9.60;;;7.80;;
6288;SDS011;3177;49.880;8.836;2023-09-12T05:48:12;13.53;;;8.43;;
6288;SDS011;3177;49.880;8.836;2023-09-12T05:50:39;12.70;;;8.20;;
6288;SDS011;3177;49.880;8.836;2023-09-12T05:53:07;12.63;;;8.57;;
6288;SDS011;3177;49.880;8.836;2023-09-12T05:55:35;10.90;;;8.70;;
6288;SDS011;3177;49.880;8.836;2023-09-12T05:58:02;9.53;;;8.23;;
6288;SDS011;3177;49.880;8.836;2023-09-12T06:00:30;12.50;;;8.57;;
6288;SDS011;3177;49.880;8.836;2023-09-12T06:02:59;13.73;;;9.60;;
6288;SDS011;3177;49.880;8.836;2023-09-12T06:05:25;14.75;;;8.88;;
6288;SDS011;3177;49.880;8.836;2023-09-12T06:07:52;10.67;;;8.40;;
6288;SDS011;3177;49.880;8.836;2023-09-12T06:10:19;16.73;;;9.37;;
6288;SDS011;3177;49.880;8.836;2023-09-12T06:12:46;10.17;;;8.93;;
6288;SDS011;3177;49.880;8.836;2023-09-12T06:15:14;14.47;;;8.70;;
6288;SDS011;3177;49.880;8.836;2023-09-12T06:17:41;10.40;;;9.33;;
6288;SDS011;3177;49.880;8.836;2023-09-12T06:20:10;10.70;;;8.13;;
6288;SDS011;3177;49.880;8.836;2023-09-12T06:22:37;12.63;;;7.93;;
6288;SDS011;3177;49.880;8.836;2023-09-12T06:25:05;11.67;;;9.17;;
6288;SDS011;3177;49.880;8.836;2023-09-12T06:27:44;13.18;;;8.38;;
6288;SDS011;3177;49.880;8.836;2023-09-12T06:30:12;10.40;;;8.67;;
6288;SDS011;3177;49.880;8.836;2023-09-12T06:32:39;14.23;;;9.50;;
6288;SDS011;3177;49.880;8.836;2023-09-12T06:35:06;15.02;;;9.75;;
6288;SDS011;3177;49.880;8.836;2023-09-12T06:37:37;12.30;;;9.37;;
6288;SDS011;3177;49.880;8.836;2023-09-12T06:40:05;12.13;;;9.88;;
6288;SDS011;3177;49.880;8.836;2023-09-12T06:42:32;14.07;;;9.67;;
6288;SDS011;3177;49.880;8.836;2023-09-12T06:44:59;11.90;;;9.77;;
6288;SDS011;3177;49.880;8.836;2023-09-12T06:47:27;13.77;;;9.17;;
6288;SDS011;3177;49.880;8.836;2023-09-12T06:49:54;13.80;;;9.70;;
6288;SDS011;3177;49.880;8.836;2023-09-12T06:52:21;19.07;;;10.30;;
6288;SDS011;3177;49.880;8.836;2023-09-12T06:54:49;15.80;;;10.17;;
6288;SDS011;3177;49.880;8.836;2023-09-12T06:57:16;12.13;;;10.27;;
6288;SDS011;3177;49.880;8.836;2023-09-12T06:59:43;15.73;;;10.07;;
6288;SDS011;3177;49.880;8.836;2023-09-12T07:02:13;12.03;;;9.13;;
6288;SDS011;3177;49.880;8.836;2023-09-12T07:04:40;10.47;;;9.37;;
6288;SDS011;3177;49.880;8.836;2023-09-12T07:07:07;12.57;;;9.93;;
6288;SDS011;3177;49.880;8.836;2023-09-12T07:09:34;13.17;;;10.27;;
6288;SDS011;3177;49.880;8.836;2023-09-12T07:12:02;11.57;;;10.00;;
6288;SDS011;3177;49.880;8.836;2023-09-12T07:14:30;15.87;;;10.50;;
6288;SDS011;3177;49.880;8.836;2023-09-12T07:16:57;12.60;;;10.80;;
6288;SDS011;3177;49.880;8.836;2023-09-12T07:19:24;15.57;;;11.00;;
6288;SDS011;3177;49.880;8.836;2023-09-12T07:21:52;15.07;;;11.57;;
6288;SDS011;3177;49.880;8.836;2023-09-12T07:24:19;16.13;;;10.13;;
6288;SDS011;3177;49.880;8.836;2023-09-12T07:26:46;11.80;;;10.40;;
6288;SDS011;3177;49.880;8.836;2023-09-12T07:29:14;15.52;;;11.43;;
6288;SDS011;3177;49.880;8.836;2023-09-12T07:31:41;11.73;;;9.67;;
6288;SDS011;3177;49.880;8.836;2023-09-12T07:34:09;15.48;;;10.63;;
6288;SDS011;3177;49.880;8.836;2023-09-12T07:36:37;17.45;;;10.60;;
6288;SDS011;3177;49.880;8.836;2023-09-12T07:39:04;16.58;;;10.52;;
6288;SDS011;3177;49.880;8.836;2023-09-12T07:41:31;15.35;;;9.75;;
6288;SDS011;3177;49.880;8.836;2023-09-12T07:43:59;14.60;;;9.65;;
6288;SDS011;3177;49.880;8.836;2023-09-12T07:46:28;17.02;;;9.35;;
6288;SDS011;3177;49.880;8.836;2023-09-12T07:48:55;16.42;;;9.38;;
6288;SDS011;3177;49.880;8.836;2023-09-12T07:51:23;11.15;;;8.38;;
6288;SDS011;3177;49.880;8.836;2023-09-12T07:53:50;17.63;;;9.00;;
6288;SDS011;3177;49.880;8.836;2023-09-12T07:56:17;11.15;;;8.35;;
6288;SDS011;3177;49.880;8.836;2023-09-12T07:58:44;10.50;;;8.63;;
6288;SDS011;3177;49.880;8.836;2023-09-12T08:01:12;12.50;;;8.88;;
6288;SDS011;3177;49.880;8.836;2023-09-12T08:03:41;13.32;;;8.00;;
6288;SDS011;3177;49.880;8.836;2023-09-12T08:06:09;11.25;;;7.43;;
6288;SDS011;3177;49.880;8.836;2023-09-12T08:08:36;12.27;;;7.38;;
6288;SDS011;3177;49.880;8.836;2023-09-12T08:11:03;12.35;;;6.88;;
6288;SDS011;3177;49.880;8.836;2023-09-12T08:13:30;12.05;;;7.20;;
6288;SDS011;3177;49.880;8.836;2023-09-12T08:15:57;11.05;;;7.18;;
6288;SDS011;3177;49.880;8.836;2023-09-12T08:18:26;8.60;;;6.80;;
6288;SDS011;3177;49.880;8.836;2023-09-12T08:20:54;11.32;;;7.00;;
6288;SDS011;3177;49.880;8.836;2023-09-12T08:23:22;7.90;;;5.72;;
6288;SDS011;3177;49.880;8.836;2023-09-12T08:25:49;12.73;;;6.78;;
6288;SDS011;3177;49.880;8.836;2023-09-12T08:28:16;9.93;;;6.57;;
6288;SDS011;3177;49.880;8.836;2023-09-12T08:30:43;12.75;;;7.03;;
6288;SDS011;3177;49.880;8.836;2023-09-12T08:33:11;6.80;;;5.80;;
6288;SDS011;3177;49.880;8.836;2023-09-12T08:35:38;7.85;;;6.40;;
6288;SDS011;3177;49.880;8.836;2023-09-12T08:38:06;11.40;;;6.78;;
6288;SDS011;3177;49.880;8.836;2023-09-12T08:40:34;9.52;;;6.30;;
6288;SDS011;3177;49.880;8.836;2023-09-12T08:43:01;9.90;;;6.25;;
6288;SDS011;3177;49.880;8.836;2023-09-12T08:45:29;10.13;;;5.82;;
6288;SDS011;3177;49.880;8.836;2023-09-12T08:47:58;12.00;;;6.38;;
6288;SDS011;3177;49.880;8.836;2023-09-12T08:50:26;7.63;;;5.53;;
6288;SDS011;3177;49.880;8.836;2023-09-12T08:52:56;6.82;;;5.32;;
6288;SDS011;3177;49.880;8.836;2023-09-12T08:55:24;9.38;;;5.68;;
6288;SDS011;3177;49.880;8.836;2023-09-12T08:57:52;9.48;;;5.40;;
6288;SDS011;3177;49.880;8.836;2023-09-12T09:00:20;8.25;;;5.50;;
6288;SDS011;3177;49.880;8.836;2023-09-12T09:02:47;8.75;;;5.63;;
6288;SDS011;3177;49.880;8.836;2023-09-12T09:05:15;10.45;;;5.35;;
6288;SDS011;3177;49.880;8.836;2023-09-12T09:07:43;9.15;;;4.68;;
6288;SDS011;3177;49.880;8.836;2023-09-12T09:10:14;7.82;;;4.40;;
6288;SDS011;3177;49.880;8.836;2023-09-12T09:12:43;7.65;;;4.60;;
6288;SDS011;3177;49.880;8.836;2023-09-12T09:15:20;9.73;;;4.35;;
6288;SDS011;3177;49.880;8.836;2023-09-12T09:17:48;11.80;;;4.80;;
6288;SDS011;3177;49.880;8.836;2023-09-12T09:20:25;11.98;;;4.78;;
6288;SDS011;3177;49.880;8.836;2023-09-12T09:22:57;4.43;;;4.03;;
6288;SDS011;3177;49.880;8.836;2023-09-12T09:25:25;7.65;;;4.68;;
6288;SDS011;3177;49.880;8.836;2023-09-12T09:27:53;7.85;;;4.38;;
6288;SDS011;3177;49.880;8.836;2023-09-12T09:30:37;5.43;;;4.22;;
6288;SDS011;3177;49.880;8.836;2023-09-12T09:33:05;10.38;;;4.60;;
6288;SDS011;3177;49.880;8.836;2023-09-12T09:35:32;8.20;;;4.53;;
6288;SDS011;3177;49.880;8.836;2023-09-12T09:37:59;6.00;;;4.25;;
6288;SDS011;3177;49.880;8.836;2023-09-12T09:40:26;7.53;;;4.30;;
6288;SDS011;3177;49.880;8.836;2023-09-12T09:42:55;7.50;;;4.95;;
6288;SDS011;3177;49.880;8.836;2023-09-12T09:45:23;8.27;;;4.47;;
6288;SDS011;3177;49.880;8.836;2023-09-12T09:47:50;8.75;;;4.35;;
6288;SDS011;3177;49.880;8.836;2023-09-12T09:50:17;9.13;;;3.92;;
6288;SDS011;3177;49.880;8.836;2023-09-12T09:52:44;9.02;;;5.30;;
6288;SDS011;3177;49.880;8.836;2023-09-12T09:55:12;6.20;;;4.00;;
6288;SDS011;3177;49.880;8.836;2023-09-12T09:57:40;8.43;;;4.03;;
6288;SDS011;3177;49.880;8.836;2023-09-12T10:00:09;12.57;;;4.50;;
6288;SDS011;3177;49.880;8.836;2023-09-12T10:02:40;10.68;;;4.40;;
6288;SDS011;3177;49.880;8.836;2023-09-12T10:05:08;8.20;;;4.25;;
6288;SDS011;3177;49.880;8.836;2023-09-12T10:07:37;6.38;;;4.43;;
6288;SDS011;3177;49.880;8.836;2023-09-12T10:10:04;9.25;;;4.35;;
6288;SDS011;3177;49.880;8.836;2023-09-12T10:12:32;5.68;;;4.35;;
6288;SDS011;3177;49.880;8.836;2023-09-12T10:15:01;6.80;;;4.35;;
6288;SDS011;3177;49.880;8.836;2023-09-12T10:17:31;6.07;;;4.10;;
6288;SDS011;3177;49.880;8.836;2023-09-12T10:20:02;8.85;;;4.40;;
6288;SDS011;3177;49.880;8.836;2023-09-12T10:22:32;7.20;;;4.10;;
6288;SDS011;3177;49.880;8.836;2023-09-12T10:25:00;5.88;;;4.65;;
6288;SDS011;3177;49.880;8.836;2023-09-12T10:27:28;4.85;;;4.00;;
6288;SDS011;3177;49.880;8.836;2023-09-12T10:29:56;8.57;;;4.25;;
6288;SDS011;3177;49.880;8.836;2023-09-12T10:32:25;10.32;;;4.45;;
6288;SDS011;3177;49.880;8.836;2023-09-12T10:34:54;7.72;;;4.60;;
6288;SDS011;3177;49.880;8.836;2023-09-12T10:37:25;6.25;;;4.22;;
6288;SDS011;3177;49.880;8.836;2023-09-12T10:39:52;7.88;;;4.53;;
6288;SDS011;3177;49.880;8.836;2023-09-12T10:42:20;7.60;;;4.38;;
6288;SDS011;3177;49.880;8.836;2023-09-12T10:44:47;5.00;;;4.28;;
6288;SDS011;3177;49.880;8.836;2023-09-12T10:47:15;8.40;;;4.75;;
6288;SDS011;3177;49.880;8.836;2023-09-12T10:49:43;5.97;;;4.30;;
6288;SDS011;3177;49.880;8.836;2023-09-12T10:52:11;8.25;;;4.30;;
6288;SDS011;3177;49.880;8.836;2023-09-12T10:54:50;7.18;;;3.97;;
6288;SDS011;3177;49.880;8.836;2023-09-12T10:57:17;7.07;;;4.22;;
6288;SDS011;3177;49.880;8.836;2023-09-12T11:02:27;7.25;;;4.13;;
6288;SDS011;3177;49.880;8.836;2023-09-12T11:04:54;6.47;;;4.88;;
6288;SDS011;3177;49.880;8.836;2023-09-12T11:07:33;8.02;;;3.78;;
6288;SDS011;3177;49.880;8.836;2023-09-12T11:10:15;7.55;;;4.50;;
6288;SDS011;3177;49.880;8.836;2023-09-12T11:12:44;10.45;;;4.72;;
6288;SDS011;3177;49.880;8.836;2023-09-12T11:15:11;6.60;;;4.90;;
6288;SDS011;3177;49.880;8.836;2023-09-12T11:17:38;7.32;;;4.45;;
6288;SDS011;3177;49.880;8.836;2023-09-12T11:20:06;7.53;;;5.00;;
6288;SDS011;3177;49.880;8.836;2023-09-12T11:22:37;6.25;;;5.00;;
6288;SDS011;3177;49.880;8.836;2023-09-12T11:25:05;6.65;;;5.07;;
6288;SDS011;3177;49.880;8.836;2023-09-12T11:27:44;8.98;;;5.10;;
6288;SDS011;3177;49.880;8.836;2023-09-12T11:30:11;7.93;;;4.97;;
6288;SDS011;3177;49.880;8.836;2023-09-12T11:32:39;7.25;;;5.57;;
6288;SDS011;3177;49.880;8.836;2023-09-12T11:35:06;9.80;;;4.65;;
6288;SDS011;3177;49.880;8.836;2023-09-12T11:37:34;7.45;;;5.10;;
6288;SDS011;3177;49.880;8.836;2023-09-12T11:40:05;6.03;;;4.45;;
6288;SDS011;3177;49.880;8.836;2023-09-12T11:42:42;9.75;;;5.00;;
6288;SDS011;3177;49.880;8.836;2023-09-12T11:45:23;9.57;;;5.40;;
6288;SDS011;3177;49.880;8.836;2023-09-12T11:47:50;9.88;;;4.70;;
6288;SDS011;3177;49.880;8.836;2023-09-12T11:50:27;7.90;;;5.22;;
6288;SDS011;3177;49.880;8.836;2023-09-12T11:52:59;9.65;;;4.93;;
6288;SDS011;3177;49.880;8.836;2023-09-12T11:55:27;7.68;;;5.15;;
6288;SDS011;3177;49.880;8.836;2023-09-12T11:57:57;13.27;;;4.80;;
6288;SDS011;3177;49.880;8.836;2023-09-12T12:00:24;9.73;;;5.10;;
6288;SDS011;3177;49.880;8.836;2023-09-12T12:02:51;9.27;;;5.35;;
6288;SDS011;3177;49.880;8.836;2023-09-12T12:05:19;7.57;;;4.75;;
6288;SDS011;3177;49.880;8.836;2023-09-12T12:07:46;7.65;;;4.90;;
6288;SDS011;3177;49.880;8.836;2023-09-12T12:10:13;8.25;;;5.20;;
6288;SDS011;3177;49.880;8.836;2023-09-12T12:12:43;5.68;;;4.57;;
6288;SDS011;3177;49.880;8.836;2023-09-12T12:15:11;8.98;;;4.95;;
6288;SDS011;3177;49.880;8.836;2023-09-12T12:17:40;6.00;;;5.10;;
6288;SDS011;3177;49.880;8.836;2023-09-12T12:20:08;8.25;;;5.38;;
6288;SDS011;3177;49.880;8.836;2023-09-12T12:22:36;7.50;;;4.78;;
6288;SDS011;3177;49.880;8.836;2023-09-12T12:25:06;10.60;;;5.22;;
6288;SDS011;3177;49.880;8.836;2023-09-12T12:27:36;7.25;;;5.20;;
6288;SDS011;3177;49.880;8.836;2023-09-12T12:30:06;7.95;;;4.75;;
6288;SDS011;3177;49.880;8.836;2023-09-12T12:32:34;6.45;;;4.75;;
6288;SDS011;3177;49.880;8.836;2023-09-12T12:35:03;5.57;;;4.93;;
6288;SDS011;3177;49.880;8.836;2023-09-12T12:37:30;6.28;;;5.20;;
6288;SDS011;3177;49.880;8.836;2023-09-12T12:39:57;5.07;;;4.28;;
6288;SDS011;3177;49.880;8.836;2023-09-12T12:42:25;8.57;;;4.70;;
6288;SDS011;3177;49.880;8.836;2023-09-12T12:44:52;6.10;;;4.43;;
6288;SDS011;3177;49.880;8.836;2023-09-12T12:47:22;7.35;;;5.15;;
6288;SDS011;3177;49.880;8.836;2023-09-12T12:49:52;11.48;;;5.30;;
6288;SDS011;3177;49.880;8.836;2023-09-12T12:52:22;6.22;;;5.20;;
6288;SDS011;3177;49.880;8.836;2023-09-12T12:54:50;7.28;;;5.18;;
6288;SDS011;3177;49.880;8.836;2023-09-12T12:57:19;8.40;;;5.22;;
6288;SDS011;3177;49.880;8.836;2023-09-12T12:59:46;7.35;;;5.75;;
6288;SDS011;3177;49.880;8.836;2023-09-12T13:02:14;8.00;;;5.32;;
6288;SDS011;3177;49.880;8.836;2023-09-12T13:04:42;7.18;;;5.05;;
6288;SDS011;3177;49.880;8.836;2023-09-12T13:07:09;5.55;;;5.00;;
6288;SDS011;3177;49.880;8.836;2023-09-12T13:09:36;7.20;;;5.47;;
6288;SDS011;3177;49.880;8.836;2023-09-12T13:12:05;7.57;;;5.47;;
6288;SDS011;3177;49.880;8.836;2023-09-12T13:14:33;10.13;;;5.55;;
6288;SDS011;3177;49.880;8.836;2023-09-12T13:17:00;6.63;;;5.22;;
6288;SDS011;3177;49.880;8.836;2023-09-12T13:19:28;6.47;;;5.72;;
6288;SDS011;3177;49.880;8.836;2023-09-12T13:21:56;6.15;;;5.53;;
6288;SDS011;3177;49.880;8.836;2023-09-12T13:24:23;7.82;;;5.45;;
6288;SDS011;3177;49.880;8.836;2023-09-12T13:26:51;6.43;;;5.55;;
6288;SDS011;3177;49.880;8.836;2023-09-12T13:29:18;7.65;;;5.28;;
6288;SDS011;3177;49.880;8.836;2023-09-12T13:31:45;6.75;;;5.13;;
6288;SDS011;3177;49.880;8.836;2023-09-12T13:34:12;9.88;;;5.50;;
6288;SDS011;3177;49.880;8.836;2023-09-12T13:36:39;6.95;;;5.50;;
6288;SDS011;3177;49.880;8.836;2023-09-12T13:39:08;5.60;;;5.10;;
6288;SDS011;3177;49.880;8.836;2023-09-12T13:41:39;7.90;;;5.38;;
6288;SDS011;3177;49.880;8.836;2023-09-12T13:44:06;7.38;;;5.50;;
6288;SDS011;3177;49.880;8.836;2023-09-12T13:46:33;7.65;;;5.32;;
6288;SDS011;3177;49.880;8.836;2023-09-12T13:49:00;7.18;;;5.00;;
6288;SDS011;3177;49.880;8.836;2023-09-12T13:51:28;8.52;;;5.18;;
6288;SDS011;3177;49.880;8.836;2023-09-12T13:53:55;5.15;;;4.65;;
6288;SDS011;3177;49.880;8.836;2023-09-12T13:56:24;5.07;;;4.57;;
6288;SDS011;3177;49.880;8.836;2023-09-12T13:58:51;6.93;;;5.15;;
6288;SDS011;3177;49.880;8.836;2023-09-12T14:01:18;7.65;;;5.28;;
6288;SDS011;3177;49.880;8.836;2023-09-12T14:03:45;8.75;;;4.97;;
6288;SDS011;3177;49.880;8.836;2023-09-12T14:06:12;5.25;;;4.50;;
6288;SDS011;3177;49.880;8.836;2023-09-12T14:08:39;6.68;;;4.82;;
6288;SDS011;3177;49.880;8.836;2023-09-12T14:11:07;6.00;;;4.55;;
6288;SDS011;3177;49.880;8.836;2023-09-12T14:13:35;6.03;;;4.40;;
6288;SDS011;3177;49.880;8.836;2023-09-12T14:16:02;6.85;;;4.78;;
6288;SDS011;3177;49.880;8.836;2023-09-12T14:18:29;5.43;;;4.60;;
6288;SDS011;3177;49.880;8.836;2023-09-12T14:20:56;5.97;;;5.00;;
6288;SDS011;3177;49.880;8.836;2023-09-12T14:23:23;7.45;;;4.80;;
6288;SDS011;3177;49.880;8.836;2023-09-12T14:25:50;7.88;;;5.32;;
6288;SDS011;3177;49.880;8.836;2023-09-12T14:28:17;8.95;;;4.75;;
6288;SDS011;3177;49.880;8.836;2023-09-12T14:30:46;5.28;;;4.65;;
6288;SDS011;3177;49.880;8.836;2023-09-12T14:33:14;4.85;;;4.35;;
6288;SDS011;3177;49.880;8.836;2023-09-12T14:35:43;5.25;;;4.50;;
6288;SDS011;3177;49.880;8.836;2023-09-12T14:38:10;9.07;;;6.22;;
6288;SDS011;3177;49.880;8.836;2023-09-12T14:40:37;5.50;;;4.45;;
6288;SDS011;3177;49.880;8.836;2023-09-12T14:43:05;5.38;;;4.82;;
6288;SDS011;3177;49.880;8.836;2023-09-12T14:45:32;8.15;;;4.63;;
6288;SDS011;3177;49.880;8.836;2023-09-12T14:48:01;7.45;;;4.90;;
6288;SDS011;3177;49.880;8.836;2023-09-12T14:50:28;9.57;;;5.00;;
6288;SDS011;3177;49.880;8.836;2023-09-12T14:52:56;11.65;;;5.13;;
6288;SDS011;3177;49.880;8.836;2023-09-12T14:55:23;6.43;;;5.15;;
6288;SDS011;3177;49.880;8.836;2023-09-12T14:57:50;5.35;;;4.75;;
6288;SDS011;3177;49.880;8.836;2023-09-12T15:00:19;5.32;;;4.75;;
6288;SDS011;3177;49.880;8.836;2023-09-12T15:02:47;6.63;;;5.10;;
6288;SDS011;3177;49.880;8.836;2023-09-12T15:05:16;8.45;;;4.63;;
6288;SDS011;3177;49.880;8.836;2023-09-12T15:07:44;5.40;;;4.90;;
6288;SDS011;3177;49.880;8.836;2023-09-12T15:10:11;5.68;;;4.57;;
6288;SDS011;3177;49.880;8.836;2023-09-12T15:12:38;7.55;;;5.00;;
6288;SDS011;3177;49.880;8.836;2023-09-12T15:15:05;7.80;;;5.13;;
6288;SDS011;3177;49.880;8.836;2023-09-12T15:17:32;5.57;;;5.00;;
6288;SDS011;3177;49.880;8.836;2023-09-12T15:19:59;5.57;;;4.38;;